Time,TemperatureF,DewpointF,PressureIn,WindDirection,WindDirectionDegrees,WindSpeedMPH,WindSpeedGustMPH,Humidity,HourlyPrecipIn,Conditions,Clouds,dailyrainin,SolarRadiationWatts/m^2,SoftwareType,DateUTC
2013-10-19 00:01:00,40.4,39.1,30.00,North,-999,0.0,0.0,95,0.00,,,-99.99,0,WeatherLink 6.0.3,2013-10-19 04:01:00,
2013-10-19 00:03:00,40.3,39.0,30.00,SSW,205,0.0,0.0,95,0.00,,,0.00,0,Wunderground v.1.15,2013-10-19 04:03:00,
2013-10-19 00:04:00,40.3,39.0,30.00,SSW,205,0.0,0.0,95,0.00,,,0.00,0,Wunderground v.1.15,2013-10-19 04:04:00,
2013-10-19 00:07:00,40.2,38.9,30.00,SSW,205,0.0,0.0,95,0.00,,,0.00,0,Wunderground v.1.15,2013-10-19 04:07:00,
2013-10-19 00:08:00,40.2,38.9,30.00,SSW,205,0.0,0.0,95,0.00,,,0.00,0,Wunderground v.1.15,2013-10-19 04:08:00,
2013-10-19 00:09:00,40.1,38.8,30.00,SSW,205,0.0,0.0,95,0.00,,,0.00,0,Wunderground v.1.15,2013-10-19 04:09:00,
2013-10-19 00:15:00,40.0,38.7,30.00,SSW,205,0.0,0.0,95,0.00,,,0.00,0,Wunderground v.1.15,2013-10-19 04:15:00,
2013-10-19 00:21:00,39.8,38.5,30.00,SSW,205,0.0,0.0,95,0.00,,,0.00,0,Wunderground v.1.15,2013-10-19 04:21:00,
2013-10-19 00:27:00,39.7,38.4,30.00,SSW,205,0.0,0.0,95,0.00,,,0.00,0,Wunderground v.1.15,2013-10-19 04:27:00,
2013-10-19 00:32:00,39.7,38.4,30.00,SSW,205,0.0,0.0,95,0.00,,,0.00,0,Wunderground v.1.15,2013-10-19 04:32:00,
2013-10-19 00:38:00,39.5,38.2,30.00,SSW,205,0.0,0.0,95,0.00,,,0.00,0,Wunderground v.1.15,2013-10-19 04:38:00,
2013-10-19 00:44:00,39.5,38.2,29.99,SSW,205,0.0,0.0,95,0.00,,,0.00,0,Wunderground v.1.15,2013-10-19 04:44:00,
2013-10-19 00:49:00,39.3,38.0,29.99,SSW,205,0.0,0.0,95,0.00,,,0.00,0,Wunderground v.1.15,2013-10-19 04:49:00,
2013-10-19 00:54:00,39.3,38.0,29.99,SSW,205,0.0,0.0,95,0.00,,,0.00,0,Wunderground v.1.15,2013-10-19 04:54:00,
2013-10-19 01:00:00,39.3,38.3,29.99,SSW,205,0.0,0.0,96,0.00,,,0.00,0,Wunderground v.1.15,2013-10-19 05:00:00,
2013-10-19 01:05:00,39.3,38.0,29.98,SSW,205,0.0,0.0,95,0.00,,,0.00,0,Wunderground v.1.15,2013-10-19 05:05:00,
2013-10-19 01:10:00,39.2,37.9,29.99,SSW,205,0.0,0.0,95,0.00,,,0.00,0,Wunderground v.1.15,2013-10-19 05:10:00,
2013-10-19 01:16:00,39.1,37.8,29.98,SSW,205,0.0,0.0,95,0.00,,,0.00,0,Wunderground v.1.15,2013-10-19 05:16:00,
2013-10-19 01:22:00,39.2,38.2,29.98,SSW,205,0.0,0.0,96,0.00,,,0.00,0,Wunderground v.1.15,2013-10-19 05:22:00,
2013-10-19 01:27:00,39.1,38.1,29.99,SSW,205,0.0,0.0,96,0.00,,,0.00,0,Wunderground v.1.15,2013-10-19 05:27:00,
2013-10-19 01:33:00,39.3,38.3,29.99,SSW,205,0.0,0.0,96,0.00,,,0.00,0,Wunderground v.1.15,2013-10-19 05:33:00,
2013-10-19 01:38:00,39.2,38.2,29.99,SSW,205,0.0,0.0,96,0.00,,,0.00,0,Wunderground v.1.15,2013-10-19 05:38:00,
2013-10-19 01:43:00,39.1,38.1,29.99,SSW,205,0.0,0.0,96,0.00,,,0.00,0,Wunderground v.1.15,2013-10-19 05:43:00,
2013-10-19 01:49:00,38.9,37.9,29.99,SSW,205,0.0,0.0,96,0.00,,,0.00,0,Wunderground v.1.15,2013-10-19 05:49:00,
2013-10-19 01:54:00,38.8,37.8,29.98,SSW,205,0.0,0.0,96,0.00,,,0.00,0,Wunderground v.1.15,2013-10-19 05:54:00,
2013-10-19 02:00:00,38.8,37.8,29.98,SSW,205,0.0,0.0,96,0.00,,,0.00,0,Wunderground v.1.15,2013-10-19 06:00:00,
2013-10-19 02:06:00,38.7,37.7,29.98,SSW,205,0.0,0.0,96,0.00,,,0.00,0,Wunderground v.1.15,2013-10-19 06:06:00,
2013-10-19 02:12:00,38.6,37.6,29.98,SSW,205,0.0,0.0,96,0.00,,,0.00,0,Wunderground v.1.15,2013-10-19 06:12:00,
2013-10-19 02:18:00,38.5,37.5,29.98,SSW,205,0.0,0.0,96,0.00,,,0.00,0,Wunderground v.1.15,2013-10-19 06:18:00,
2013-10-19 02:23:00,38.4,37.4,29.98,SSW,205,0.0,0.0,96,0.00,,,0.00,0,Wunderground v.1.15,2013-10-19 06:23:00,
2013-10-19 02:29:00,38.3,37.3,29.98,SSW,205,0.0,0.0,96,0.00,,,0.00,0,Wunderground v.1.15,2013-10-19 06:29:00,
2013-10-19 02:35:00,38.1,37.1,29.98,SSW,205,0.0,0.0,96,0.00,,,0.00,0,Wunderground v.1.15,2013-10-19 06:35:00,
2013-10-19 02:41:00,38.0,37.0,29.98,SSW,205,0.0,0.0,96,0.00,,,0.00,0,Wunderground v.1.15,2013-10-19 06:41:00,
2013-10-19 02:47:00,37.9,36.9,29.98,SSW,205,0.0,0.0,96,0.00,,,0.00,0,Wunderground v.1.15,2013-10-19 06:47:00,
2013-10-19 02:53:00,37.8,36.8,29.98,SSW,205,0.0,0.0,96,0.00,,,0.00,0,Wunderground v.1.15,2013-10-19 06:53:00,
2013-10-19 02:59:00,37.8,36.8,29.98,SSW,205,0.0,0.0,96,0.00,,,0.00,0,Wunderground v.1.15,2013-10-19 06:59:00,
2013-10-19 03:04:00,37.7,36.7,29.98,SSW,205,0.0,0.0,96,0.00,,,0.00,0,Wunderground v.1.15,2013-10-19 07:04:00,
2013-10-19 03:10:00,37.7,36.7,29.97,SSW,205,0.0,0.0,96,0.00,,,0.00,0,Wunderground v.1.15,2013-10-19 07:10:00,
2013-10-19 03:15:00,37.7,36.7,29.97,SSW,205,0.0,0.0,96,0.00,,,0.00,0,Wunderground v.1.15,2013-10-19 07:15:00,
2013-10-19 03:21:00,37.6,36.6,29.97,SSW,205,0.0,0.0,96,0.00,,,0.00,0,Wunderground v.1.15,2013-10-19 07:21:00,
2013-10-19 03:27:00,37.5,36.5,29.97,SSW,205,0.0,0.0,96,0.00,,,0.00,0,Wunderground v.1.15,2013-10-19 07:27:00,
2013-10-19 03:33:00,37.3,36.3,29.96,SSW,205,0.0,0.0,96,0.00,,,0.00,0,Wunderground v.1.15,2013-10-19 07:33:00,
2013-10-19 03:39:00,37.2,36.2,29.96,SSW,205,0.0,0.0,96,0.00,,,0.00,0,Wunderground v.1.15,2013-10-19 07:39:00,
2013-10-19 03:45:00,37.3,36.3,29.96,SSW,205,0.0,0.0,96,0.00,,,0.00,0,Wunderground v.1.15,2013-10-19 07:45:00,
2013-10-19 03:50:00,37.4,36.4,29.96,SSW,205,0.0,0.0,96,0.00,,,0.00,0,Wunderground v.1.15,2013-10-19 07:50:00,
2013-10-19 03:55:00,37.3,36.3,29.96,SSW,205,0.0,0.0,96,0.00,,,0.00,0,Wunderground v.1.15,2013-10-19 07:55:00,
2013-10-19 04:01:00,37.3,36.3,29.96,North,-999,0.0,0.0,96,0.00,,,-99.99,0,WeatherLink 6.0.3,2013-10-19 08:01:00,
2013-10-19 04:07:00,37.1,36.1,29.96,SSW,205,0.0,0.0,96,0.00,,,0.00,0,Wunderground v.1.15,2013-10-19 08:07:00,
2013-10-19 04:13:00,37.0,36.0,29.96,SSW,205,0.0,0.0,96,0.00,,,0.00,0,Wunderground v.1.15,2013-10-19 08:13:00,
2013-10-19 04:19:00,36.9,35.9,29.95,SSW,205,0.0,0.0,96,0.00,,,0.00,0,Wunderground v.1.15,2013-10-19 08:19:00,
2013-10-19 04:24:00,36.7,35.7,29.95,SSW,205,0.0,0.0,96,0.00,,,0.00,0,Wunderground v.1.15,2013-10-19 08:24:00,
2013-10-19 04:30:00,36.6,35.6,29.95,SSW,205,0.0,0.0,96,0.00,,,0.00,0,Wunderground v.1.15,2013-10-19 08:30:00,
2013-10-19 04:36:00,36.5,35.5,29.95,SSW,205,0.0,0.0,96,0.00,,,0.00,0,Wunderground v.1.15,2013-10-19 08:36:00,
2013-10-19 04:42:00,36.4,35.4,29.95,SSW,205,0.0,0.0,96,0.00,,,0.00,0,Wunderground v.1.15,2013-10-19 08:42:00,
2013-10-19 04:48:00,36.3,35.3,29.95,SSW,205,0.0,0.0,96,0.00,,,0.00,0,Wunderground v.1.15,2013-10-19 08:48:00,
2013-10-19 04:54:00,36.2,35.2,29.95,SSW,205,0.0,0.0,96,0.00,,,0.00,0,Wunderground v.1.15,2013-10-19 08:54:00,
2013-10-19 05:00:00,36.1,35.1,29.95,SSW,205,0.0,0.0,96,0.00,,,0.00,0,Wunderground v.1.15,2013-10-19 09:00:00,
2013-10-19 05:05:00,36.1,35.1,29.95,SSW,205,0.0,0.0,96,0.00,,,0.00,0,Wunderground v.1.15,2013-10-19 09:05:00,
2013-10-19 05:10:00,36.1,35.1,29.95,SSW,205,0.0,0.0,96,0.00,,,0.00,0,Wunderground v.1.15,2013-10-19 09:10:00,
2013-10-19 05:16:00,36.1,35.1,29.95,SSW,205,0.0,0.0,96,0.00,,,0.00,0,Wunderground v.1.15,2013-10-19 09:16:00,
2013-10-19 05:21:00,36.1,35.1,29.95,SSW,205,0.0,0.0,96,0.00,,,0.00,0,Wunderground v.1.15,2013-10-19 09:21:00,
2013-10-19 05:27:00,36.0,35.0,29.95,SSW,205,0.0,0.0,96,0.00,,,0.00,0,Wunderground v.1.15,2013-10-19 09:27:00,
2013-10-19 05:32:00,35.9,34.9,29.95,SSW,205,0.0,0.0,96,0.00,,,0.00,0,Wunderground v.1.15,2013-10-19 09:32:00,
2013-10-19 05:38:00,35.9,34.9,29.95,SSW,205,0.0,0.0,96,0.00,,,0.00,0,Wunderground v.1.15,2013-10-19 09:38:00,
2013-10-19 05:44:00,35.9,34.9,29.95,SSW,205,0.0,0.0,96,0.00,,,0.00,0,Wunderground v.1.15,2013-10-19 09:44:00,
2013-10-19 05:50:00,35.9,34.9,29.95,SSW,205,0.0,0.0,96,0.00,,,0.00,0,Wunderground v.1.15,2013-10-19 09:50:00,
2013-10-19 05:56:00,35.9,34.9,29.95,SSW,205,0.0,0.0,96,0.00,,,0.00,0,Wunderground v.1.15,2013-10-19 09:56:00,
2013-10-19 06:01:00,35.8,34.8,29.94,North,-999,0.0,0.0,96,0.00,,,-99.99,0,WeatherLink 6.0.3,2013-10-19 10:01:00,
2013-10-19 06:07:00,35.7,34.7,29.94,SSW,205,0.0,0.0,96,0.00,,,0.00,0,Wunderground v.1.15,2013-10-19 10:07:00,
2013-10-19 06:13:00,35.7,34.7,29.94,SSW,205,0.0,0.0,96,0.00,,,0.00,0,Wunderground v.1.15,2013-10-19 10:13:00,
2013-10-19 06:19:00,35.6,34.6,29.94,SSW,205,0.0,0.0,96,0.00,,,0.00,0,Wunderground v.1.15,2013-10-19 10:19:00,
2013-10-19 06:25:00,35.5,34.5,29.94,SSW,205,0.0,0.0,96,0.00,,,0.00,0,Wunderground v.1.15,2013-10-19 10:25:00,
2013-10-19 06:31:00,35.4,34.4,29.94,North,-999,0.0,0.0,96,0.00,,,-99.99,0,WeatherLink 6.0.3,2013-10-19 10:31:00,
2013-10-19 06:37:00,35.3,34.3,29.94,SSW,205,0.0,0.0,96,0.00,,,0.00,0,Wunderground v.1.15,2013-10-19 10:37:00,
2013-10-19 06:43:00,35.2,34.2,29.94,SSW,205,0.0,0.0,96,0.00,,,0.00,0,Wunderground v.1.15,2013-10-19 10:43:00,
2013-10-19 06:49:00,35.1,34.1,29.93,SSW,205,0.0,0.0,96,0.00,,,0.00,0,Wunderground v.1.15,2013-10-19 10:49:00,
2013-10-19 06:55:00,35.0,34.0,29.93,SSW,205,0.0,0.0,96,0.00,,,0.00,0,Wunderground v.1.15,2013-10-19 10:55:00,
2013-10-19 07:01:00,35.0,34.0,29.93,North,-999,0.0,0.0,96,0.00,,,-99.99,0,WeatherLink 6.0.3,2013-10-19 11:01:00,
2013-10-19 07:06:00,35.0,34.0,29.93,SSW,205,0.0,0.0,96,0.00,,,0.00,0,Wunderground v.1.15,2013-10-19 11:06:00,
2013-10-19 07:12:00,35.0,34.0,29.93,SSW,205,0.0,0.0,96,0.00,,,0.00,0,Wunderground v.1.15,2013-10-19 11:12:00,
2013-10-19 07:18:00,35.0,34.0,29.92,SSW,205,0.0,0.0,96,0.00,,,0.00,0,Wunderground v.1.15,2013-10-19 11:18:00,
2013-10-19 07:24:00,34.9,33.9,29.92,SSW,205,0.0,0.0,96,0.00,,,0.00,0,Wunderground v.1.15,2013-10-19 11:24:00,
2013-10-19 07:30:00,34.7,33.7,29.92,SSW,205,0.0,0.0,96,0.00,,,0.00,0,Wunderground v.1.15,2013-10-19 11:30:00,
2013-10-19 07:35:00,34.7,33.7,29.92,SSW,205,0.0,0.0,96,0.00,,,0.00,0,Wunderground v.1.15,2013-10-19 11:35:00,
2013-10-19 07:41:00,34.6,33.6,29.92,SSW,205,0.0,0.0,96,0.00,,,0.00,0,Wunderground v.1.15,2013-10-19 11:41:00,
2013-10-19 07:47:00,34.5,33.5,29.91,SSW,205,0.0,0.0,96,0.00,,,0.00,5,Wunderground v.1.15,2013-10-19 11:47:00,
2013-10-19 07:53:00,34.4,33.4,29.91,SSW,205,0.0,0.0,96,0.00,,,0.00,7,Wunderground v.1.15,2013-10-19 11:53:00,
2013-10-19 07:59:00,34.5,33.5,29.92,SSW,205,0.0,0.0,96,0.00,,,0.00,11,Wunderground v.1.15,2013-10-19 11:59:00,
2013-10-19 08:04:00,34.6,33.6,29.91,SSW,205,0.0,0.0,96,0.00,,,0.00,14,Wunderground v.1.15,2013-10-19 12:04:00,
2013-10-19 08:09:00,34.8,34.0,29.92,SSW,205,0.0,0.0,97,0.00,,,0.00,30,Wunderground v.1.15,2013-10-19 12:09:00,
2013-10-19 08:15:00,35.1,34.3,29.92,SSW,205,0.0,0.0,97,0.00,,,0.00,42,Wunderground v.1.15,2013-10-19 12:15:00,
2013-10-19 08:21:00,35.8,35.0,29.91,SSW,205,0.0,0.0,97,0.00,,,0.00,42,Wunderground v.1.15,2013-10-19 12:21:00,
2013-10-19 08:26:00,36.8,36.0,29.91,SSW,205,0.0,0.0,97,0.00,,,0.00,63,Wunderground v.1.15,2013-10-19 12:26:00,
2013-10-19 08:31:00,37.8,37.0,29.91,SSW,205,0.0,0.0,97,0.00,,,0.00,51,Wunderground v.1.15,2013-10-19 12:31:00,
2013-10-19 08:37:00,39.1,38.3,29.92,SSW,205,0.0,0.0,97,0.00,,,0.00,56,Wunderground v.1.15,2013-10-19 12:37:00,
2013-10-19 08:42:00,40.3,39.5,29.92,SSW,205,0.0,0.0,97,0.00,,,0.00,53,Wunderground v.1.15,2013-10-19 12:42:00,
2013-10-19 08:48:00,41.3,40.5,29.92,SSW,205,0.0,0.0,97,0.00,,,0.00,65,Wunderground v.1.15,2013-10-19 12:48:00,
2013-10-19 08:54:00,41.9,41.1,29.92,SSW,205,0.0,0.0,97,0.00,,,0.00,53,Wunderground v.1.15,2013-10-19 12:54:00,
2013-10-19 09:00:00,42.4,41.9,29.91,SSW,205,0.0,0.0,98,0.00,,,0.00,58,Wunderground v.1.15,2013-10-19 13:00:00,
2013-10-19 09:06:00,43.0,42.5,29.91,SSW,205,0.0,0.0,98,0.00,,,0.00,86,Wunderground v.1.15,2013-10-19 13:06:00,
2013-10-19 09:11:00,43.6,43.1,29.91,SSW,205,0.0,0.0,98,0.00,,,0.00,93,Wunderground v.1.15,2013-10-19 13:11:00,
2013-10-19 09:17:00,44.3,43.8,29.91,SSW,205,0.0,0.0,98,0.00,,,0.00,90,Wunderground v.1.15,2013-10-19 13:17:00,
2013-10-19 09:23:00,44.9,44.4,29.91,SSW,205,0.0,0.0,98,0.00,,,0.00,113,Wunderground v.1.15,2013-10-19 13:23:00,
2013-10-19 09:28:00,45.3,44.8,29.91,SSW,205,0.0,1.0,98,0.00,,,0.00,127,Wunderground v.1.15,2013-10-19 13:28:00,
2013-10-19 09:34:00,45.6,45.1,29.90,SSW,205,0.0,0.0,98,0.00,,,0.00,104,Wunderground v.1.15,2013-10-19 13:34:00,
2013-10-19 09:40:00,45.9,45.4,29.90,SSW,202,0.0,1.0,98,0.00,,,0.00,113,Wunderground v.1.15,2013-10-19 13:40:00,
2013-10-19 09:46:00,46.1,45.6,29.90,SSW,198,0.0,1.0,98,0.00,,,0.00,160,Wunderground v.1.15,2013-10-19 13:46:00,
2013-10-19 09:52:00,46.6,45.8,29.91,SSW,198,0.0,0.0,97,0.00,,,0.00,120,Wunderground v.1.15,2013-10-19 13:52:00,
2013-10-19 09:58:00,47.2,46.4,29.89,SSW,198,0.0,0.0,97,0.00,,,0.00,81,Wunderground v.1.15,2013-10-19 13:58:00,
2013-10-19 10:04:00,47.5,46.4,29.89,SSW,198,0.0,0.0,96,0.00,,,0.00,100,Wunderground v.1.15,2013-10-19 14:04:00,
2013-10-19 10:09:00,47.8,46.7,29.89,SSW,198,0.0,0.0,96,0.00,,,0.00,91,Wunderground v.1.15,2013-10-19 14:09:00,
2013-10-19 10:15:00,48.1,46.5,29.88,SSW,198,0.0,0.0,94,0.00,,,0.00,116,Wunderground v.1.15,2013-10-19 14:15:00,
2013-10-19 10:21:00,48.3,46.4,29.89,SSW,198,0.0,0.0,93,0.00,,,0.00,169,Wunderground v.1.15,2013-10-19 14:21:00,
2013-10-19 10:26:00,48.5,46.0,29.89,SSW,198,0.0,1.0,91,0.00,,,0.00,144,Wunderground v.1.15,2013-10-19 14:26:00,
2013-10-19 10:32:00,48.8,46.0,29.89,SSW,198,0.0,0.0,90,0.00,,,0.00,132,Wunderground v.1.15,2013-10-19 14:32:00,
2013-10-19 10:38:00,49.2,46.1,29.88,SSW,198,0.0,0.0,89,0.00,,,0.00,144,Wunderground v.1.15,2013-10-19 14:38:00,
2013-10-19 10:44:00,49.6,46.2,29.87,SSE,151,0.0,1.0,88,0.00,,,0.00,195,Wunderground v.1.15,2013-10-19 14:44:00,
2013-10-19 10:49:00,49.9,46.2,29.86,SSE,151,0.0,1.0,87,0.00,,,0.00,213,Wunderground v.1.15,2013-10-19 14:49:00,
2013-10-19 10:55:00,50.4,46.7,29.87,SSE,151,0.0,0.0,87,0.00,,,0.00,169,Wunderground v.1.15,2013-10-19 14:55:00,
2013-10-19 11:00:00,50.9,46.9,29.87,SSE,166,0.0,1.0,86,0.00,,,0.00,181,Wunderground v.1.15,2013-10-19 15:00:00,
2013-10-19 11:06:00,51.2,46.8,29.87,South,184,0.0,1.0,85,0.00,,,0.00,214,Wunderground v.1.15,2013-10-19 15:06:00,
2013-10-19 11:12:00,51.4,46.7,29.87,South,184,0.0,0.0,84,0.00,,,0.00,139,Wunderground v.1.15,2013-10-19 15:12:00,
2013-10-19 11:18:00,51.6,46.9,29.88,South,188,0.0,0.0,84,0.00,,,0.00,151,Wunderground v.1.15,2013-10-19 15:18:00,
2013-10-19 11:23:00,51.7,46.4,29.87,South,190,0.0,2.0,82,0.00,,,0.00,137,Wunderground v.1.15,2013-10-19 15:23:00,
2013-10-19 11:29:00,51.8,46.5,29.87,SSW,192,0.0,2.0,82,0.00,,,0.00,174,Wunderground v.1.15,2013-10-19 15:29:00,
2013-10-19 11:34:00,51.9,46.6,29.87,SSW,192,0.0,1.0,82,0.00,,,0.00,148,Wunderground v.1.15,2013-10-19 15:34:00,
2013-10-19 11:40:00,51.9,46.3,29.87,SSW,202,1.0,2.0,81,0.00,,,0.00,104,Wunderground v.1.15,2013-10-19 15:40:00,
2013-10-19 11:46:00,51.9,46.6,29.86,SSW,202,1.0,2.0,82,0.00,,,0.00,163,Wunderground v.1.15,2013-10-19 15:46:00,
2013-10-19 11:52:00,52.0,46.7,29.86,SSW,202,0.0,0.0,82,0.00,,,0.00,172,Wunderground v.1.15,2013-10-19 15:52:00,
2013-10-19 11:57:00,52.2,46.9,29.86,SSW,202,0.0,0.0,82,0.00,,,0.00,151,Wunderground v.1.15,2013-10-19 15:57:00,
2013-10-19 12:02:00,52.4,47.1,29.86,SSW,203,0.0,0.0,82,0.00,,,0.00,160,Wunderground v.1.15,2013-10-19 16:02:00,
2013-10-19 12:08:00,52.8,47.8,29.86,SSW,203,0.0,0.0,83,0.00,,,0.00,169,Wunderground v.1.15,2013-10-19 16:08:00,
2013-10-19 12:14:00,53.1,48.1,29.85,SSW,213,0.0,0.0,83,0.00,,,0.00,130,Wunderground v.1.15,2013-10-19 16:14:00,
2013-10-19 12:19:00,53.3,47.9,29.85,SSW,213,0.0,0.0,82,0.00,,,0.00,102,Wunderground v.1.15,2013-10-19 16:19:00,
2013-10-19 12:25:00,53.4,48.0,29.85,SSW,213,0.0,0.0,82,0.00,,,0.00,109,Wunderground v.1.15,2013-10-19 16:25:00,
2013-10-19 12:30:00,53.3,47.6,29.84,SSW,213,0.0,0.0,81,0.00,,,0.00,98,Wunderground v.1.15,2013-10-19 16:30:00,
2013-10-19 12:36:00,53.2,47.5,29.83,SSW,213,0.0,0.0,81,0.00,,,0.00,95,Wunderground v.1.15,2013-10-19 16:36:00,
2013-10-19 12:42:00,53.2,47.8,29.83,SSW,213,0.0,0.0,82,0.00,,,0.00,134,Wunderground v.1.15,2013-10-19 16:42:00,
2013-10-19 12:47:00,53.3,47.9,29.82,SSW,213,0.0,0.0,82,0.00,,,0.00,139,Wunderground v.1.15,2013-10-19 16:47:00,
2013-10-19 12:53:00,53.4,48.0,29.83,SSW,213,0.0,0.0,82,0.00,,,0.00,97,Wunderground v.1.15,2013-10-19 16:53:00,
2013-10-19 12:59:00,53.4,47.7,29.83,SSW,213,0.0,0.0,81,0.00,,,0.00,88,Wunderground v.1.15,2013-10-19 16:59:00,
2013-10-19 13:05:00,53.5,48.1,29.83,SSW,213,0.0,0.0,82,0.00,,,0.00,86,Wunderground v.1.15,2013-10-19 17:05:00,
2013-10-19 13:10:00,53.6,47.9,29.82,SSW,213,0.0,0.0,81,0.00,,,0.00,86,Wunderground v.1.15,2013-10-19 17:10:00,
2013-10-19 13:16:00,53.6,47.9,29.82,SSW,213,0.0,1.0,81,0.00,,,0.00,111,Wunderground v.1.15,2013-10-19 17:16:00,
2013-10-19 13:22:00,53.7,48.3,29.82,SSW,213,0.0,0.0,82,0.00,,,0.00,139,Wunderground v.1.15,2013-10-19 17:22:00,
2013-10-19 13:28:00,53.8,47.8,29.82,SSW,209,0.0,0.0,80,0.00,,,0.00,172,Wunderground v.1.15,2013-10-19 17:28:00,
2013-10-19 13:34:00,53.9,48.5,29.82,SSW,209,0.0,0.0,82,0.00,,,0.00,123,Wunderground v.1.15,2013-10-19 17:34:00,
2013-10-19 13:40:00,54.1,48.4,29.82,SSW,209,0.0,1.0,81,0.00,,,0.00,139,Wunderground v.1.15,2013-10-19 17:40:00,
2013-10-19 13:45:00,54.2,48.2,29.82,SSW,209,0.0,1.0,80,0.00,,,0.00,98,Wunderground v.1.15,2013-10-19 17:45:00,
2013-10-19 13:51:00,54.1,48.1,29.82,SSW,209,0.0,0.0,80,0.00,,,0.00,97,Wunderground v.1.15,2013-10-19 17:51:00,
2013-10-19 13:56:00,54.1,48.1,29.82,SSW,209,0.0,0.0,80,0.00,,,0.00,90,Wunderground v.1.15,2013-10-19 17:56:00,
2013-10-19 14:02:00,54.0,48.0,29.81,SSW,209,0.0,0.0,80,0.00,,,0.00,113,Wunderground v.1.15,2013-10-19 18:02:00,
2013-10-19 14:08:00,54.0,48.6,29.81,SSW,209,0.0,0.0,82,0.00,,,0.00,153,Wunderground v.1.15,2013-10-19 18:08:00,
2013-10-19 14:14:00,54.1,48.4,29.81,SSW,209,0.0,1.0,81,0.00,,,0.00,153,Wunderground v.1.15,2013-10-19 18:14:00,
2013-10-19 14:20:00,54.2,48.2,29.81,South,185,0.0,0.0,80,0.00,,,0.00,97,Wunderground v.1.15,2013-10-19 18:20:00,
2013-10-19 14:26:00,54.2,48.2,29.80,SSW,192,0.0,1.0,80,0.00,,,0.00,91,Wunderground v.1.15,2013-10-19 18:26:00,
2013-10-19 14:32:00,54.2,48.8,29.80,SSW,192,0.0,0.0,82,0.00,,,0.00,46,Wunderground v.1.15,2013-10-19 18:32:00,
2013-10-19 14:38:00,54.0,48.6,29.80,SSW,192,0.0,1.0,82,0.00,,,0.00,63,Wunderground v.1.15,2013-10-19 18:38:00,
2013-10-19 14:43:00,53.7,48.7,29.80,SSW,192,0.0,0.0,83,0.00,,,0.00,65,Wunderground v.1.15,2013-10-19 18:43:00,
2013-10-19 14:49:00,53.6,48.6,29.80,SSW,192,0.0,0.0,83,0.00,,,0.00,69,Wunderground v.1.15,2013-10-19 18:49:00,
2013-10-19 14:55:00,53.5,48.5,29.80,SSW,192,0.0,0.0,83,0.00,,,0.00,84,Wunderground v.1.15,2013-10-19 18:55:00,
2013-10-19 15:00:00,53.5,48.5,29.80,SSW,192,0.0,0.0,83,0.00,,,0.00,76,Wunderground v.1.15,2013-10-19 19:00:00,
2013-10-19 15:06:00,53.5,48.8,29.80,SSW,192,0.0,0.0,84,0.00,,,0.00,32,Wunderground v.1.15,2013-10-19 19:06:00,
2013-10-19 15:11:00,53.4,49.0,29.79,South,187,0.0,0.0,85,0.00,,,0.00,79,Wunderground v.1.15,2013-10-19 19:11:00,
2013-10-19 15:17:00,53.2,48.5,29.79,South,187,0.0,1.0,84,0.00,,,0.00,93,Wunderground v.1.15,2013-10-19 19:17:00,
2013-10-19 15:23:00,53.1,48.7,29.79,South,187,0.0,1.0,85,0.00,,,0.00,63,Wunderground v.1.15,2013-10-19 19:23:00,
2013-10-19 15:29:00,53.1,49.0,29.79,SSE,156,0.0,1.0,86,0.00,,,0.00,86,Wunderground v.1.15,2013-10-19 19:29:00,
2013-10-19 15:35:00,53.1,49.0,29.79,South,190,0.0,0.0,86,0.00,,,0.00,70,Wunderground v.1.15,2013-10-19 19:35:00,
2013-10-19 15:40:00,53.0,48.9,29.79,South,190,0.0,1.0,86,0.00,,,0.00,56,Wunderground v.1.15,2013-10-19 19:40:00,
2013-10-19 15:46:00,53.0,48.9,29.79,SSW,194,0.0,2.0,86,0.00,,,0.00,49,Wunderground v.1.15,2013-10-19 19:46:00,
2013-10-19 15:52:00,53.0,48.9,29.79,SSW,194,0.0,0.0,86,0.00,,,0.00,47,Wunderground v.1.15,2013-10-19 19:52:00,
2013-10-19 15:58:00,53.0,48.9,29.79,SSW,194,0.0,2.0,86,0.00,,,0.00,83,Wunderground v.1.15,2013-10-19 19:58:00,
2013-10-19 16:03:00,53.0,48.9,29.79,SSW,194,0.0,0.0,86,0.00,,,0.00,120,Wunderground v.1.15,2013-10-19 20:03:00,
2013-10-19 16:09:00,53.2,49.1,29.79,SSW,194,0.0,0.0,86,0.00,,,0.00,127,Wunderground v.1.15,2013-10-19 20:09:00,
2013-10-19 16:15:00,53.5,49.4,29.79,SSW,194,0.0,0.0,86,0.00,,,0.00,62,Wunderground v.1.15,2013-10-19 20:15:00,
2013-10-19 16:20:00,53.6,49.5,29.79,SSW,194,0.0,0.0,86,0.00,,,0.00,37,Wunderground v.1.15,2013-10-19 20:20:00,
2013-10-19 16:25:00,53.7,49.6,29.80,ESE,111,0.0,2.0,86,0.00,,,0.00,19,Wunderground v.1.15,2013-10-19 20:25:00,
2013-10-19 16:31:00,53.7,49.6,29.80,SSW,202,0.0,2.0,86,0.00,,,-99.99,66,WeatherLink 6.0.3,2013-10-19 20:31:00,
2013-10-19 16:37:00,53.5,49.7,29.80,SSW,200,0.0,0.0,87,0.00,,,0.01,18,Wunderground v.1.15,2013-10-19 20:37:00,
2013-10-19 16:42:00,53.4,49.9,29.80,SSW,200,0.0,1.0,88,0.00,,,0.01,32,Wunderground v.1.15,2013-10-19 20:42:00,
2013-10-19 16:47:00,53.2,50.0,29.80,SSW,193,0.0,1.0,89,0.00,,,0.01,39,Wunderground v.1.15,2013-10-19 20:47:00,
2013-10-19 16:53:00,52.8,49.6,29.80,SW,221,0.0,1.0,89,0.00,,,0.01,32,Wunderground v.1.15,2013-10-19 20:53:00,
2013-10-19 16:59:00,52.6,49.4,29.79,SW,221,0.0,1.0,89,0.00,,,0.01,33,Wunderground v.1.15,2013-10-19 20:59:00,
2013-10-19 17:04:00,52.4,49.6,29.79,SW,221,0.0,3.0,90,0.00,,,0.02,26,Wunderground v.1.15,2013-10-19 21:04:00,
2013-10-19 17:10:00,52.2,49.4,29.79,SW,216,0.0,0.0,90,0.00,,,0.02,16,Wunderground v.1.15,2013-10-19 21:10:00,
2013-10-19 17:15:00,52.1,49.3,29.79,SSW,204,0.0,0.0,90,0.00,,,0.02,19,Wunderground v.1.15,2013-10-19 21:15:00,
2013-10-19 17:21:00,51.9,49.4,29.79,SSW,211,0.0,2.0,91,0.00,,,0.02,21,Wunderground v.1.15,2013-10-19 21:21:00,
2013-10-19 17:27:00,51.7,48.9,29.80,SSW,207,0.0,2.0,90,0.00,,,0.02,16,Wunderground v.1.15,2013-10-19 21:27:00,
2013-10-19 17:33:00,51.6,49.1,29.80,SSW,207,0.0,1.0,91,0.00,,,0.02,19,Wunderground v.1.15,2013-10-19 21:33:00,
2013-10-19 17:39:00,51.4,48.9,29.80,SW,217,0.0,3.0,91,0.00,,,0.02,11,Wunderground v.1.15,2013-10-19 21:39:00,
2013-10-19 17:45:00,51.3,48.8,29.80,SW,217,0.0,0.0,91,0.00,,,0.02,9,Wunderground v.1.15,2013-10-19 21:45:00,
2013-10-19 17:51:00,51.3,48.8,29.80,SW,231,1.0,1.0,91,0.00,,,0.02,11,Wunderground v.1.15,2013-10-19 21:51:00,
2013-10-19 17:56:00,51.2,48.7,29.79,SSE,148,1.0,1.0,91,0.00,,,0.02,11,Wunderground v.1.15,2013-10-19 21:56:00,
2013-10-19 18:01:00,51.1,48.9,29.80,South,190,0.0,0.0,92,0.00,,,0.02,9,Wunderground v.1.15,2013-10-19 22:01:00,
2013-10-19 18:07:00,51.0,48.5,29.80,SW,235,0.0,2.0,91,0.00,,,0.02,11,Wunderground v.1.15,2013-10-19 22:07:00,
2013-10-19 18:13:00,50.9,48.7,29.80,SW,234,0.0,1.0,92,0.00,,,0.02,16,Wunderground v.1.15,2013-10-19 22:13:00,
2013-10-19 18:20:00,51.0,48.8,29.81,WSW,238,0.0,0.0,92,0.00,,,0.02,0,Wunderground v.1.15,2013-10-19 22:20:00,
2013-10-19 18:26:00,51.0,48.5,29.81,SW,214,1.0,3.0,91,0.00,,,0.02,0,Wunderground v.1.15,2013-10-19 22:26:00,
2013-10-19 18:32:00,51.0,48.5,29.81,SW,225,1.0,6.0,91,0.01,,,-99.99,6,WeatherLink 6.0.3,2013-10-19 22:32:00,
2013-10-19 18:37:00,51.1,48.9,29.82,WSW,249,1.0,2.0,92,0.00,,,0.03,0,Wunderground v.1.15,2013-10-19 22:37:00,
2013-10-19 18:43:00,51.0,48.8,29.82,SSW,213,0.0,2.0,92,0.38,,,0.05,0,Wunderground v.1.15,2013-10-19 22:43:00,
2013-10-19 18:49:00,50.8,48.8,29.84,SW,233,1.0,3.0,93,0.17,,,0.07,0,Wunderground v.1.15,2013-10-19 22:49:00,
2013-10-19 18:55:00,50.5,48.3,29.84,WSW,257,0.0,7.0,92,0.06,,,0.07,0,Wunderground v.1.15,2013-10-19 22:55:00,
2013-10-19 19:01:00,50.1,47.9,29.85,West,270,0.0,8.0,92,0.05,,,-99.99,0,WeatherLink 6.0.3,2013-10-19 23:01:00,
2013-10-19 19:07:00,49.1,46.3,29.85,West,271,1.0,4.0,90,0.00,,,0.07,0,Wunderground v.1.15,2013-10-19 23:07:00,
2013-10-19 19:13:00,48.3,45.8,29.86,NW,305,1.0,2.0,91,0.00,,,0.07,0,Wunderground v.1.15,2013-10-19 23:13:00,
2013-10-19 19:19:00,47.8,45.3,29.86,NW,307,0.0,2.0,91,0.00,,,0.07,0,Wunderground v.1.15,2013-10-19 23:19:00,
2013-10-19 19:24:00,47.4,45.2,29.87,WNW,301,0.0,1.0,92,0.00,,,0.07,0,Wunderground v.1.15,2013-10-19 23:24:00,
2013-10-19 19:30:00,47.1,44.9,29.87,WNW,297,1.0,1.0,92,0.00,,,0.07,0,Wunderground v.1.15,2013-10-19 23:30:00,
2013-10-19 19:36:00,46.9,44.7,29.88,West,262,1.0,2.0,92,0.00,,,0.07,0,Wunderground v.1.15,2013-10-19 23:36:00,
2013-10-19 19:41:00,46.7,44.5,29.88,WSW,249,0.0,0.0,92,0.00,,,0.07,0,Wunderground v.1.15,2013-10-19 23:41:00,
2013-10-19 19:47:00,46.5,44.3,29.88,West,268,0.0,3.0,92,0.00,,,0.07,0,Wunderground v.1.15,2013-10-19 23:47:00,
2013-10-19 19:53:00,46.3,44.1,29.89,West,274,0.0,0.0,92,0.00,,,0.07,0,Wunderground v.1.15,2013-10-19 23:53:00,
2013-10-19 19:58:00,46.3,44.4,29.89,West,262,0.0,1.0,93,0.00,,,0.07,0,Wunderground v.1.15,2013-10-19 23:58:00,
2013-10-19 20:04:00,46.1,44.2,29.90,West,261,0.0,1.0,93,0.00,,,0.07,0,Wunderground v.1.15,2013-10-20 00:04:00,
2013-10-19 20:10:00,46.0,43.8,29.90,North,350,0.0,0.0,92,0.00,,,0.07,0,Wunderground v.1.15,2013-10-20 00:10:00,
2013-10-19 20:16:00,45.9,43.7,29.91,West,269,1.0,4.0,92,0.00,,,0.07,0,Wunderground v.1.15,2013-10-20 00:16:00,
2013-10-19 20:21:00,45.8,43.6,29.91,WSW,254,0.0,0.0,92,0.00,,,0.07,0,Wunderground v.1.15,2013-10-20 00:21:00,
2013-10-19 20:27:00,45.7,43.5,29.91,WSW,255,0.0,0.0,92,0.00,,,0.07,0,Wunderground v.1.15,2013-10-20 00:27:00,
2013-10-19 20:33:00,45.6,43.4,29.91,WSW,246,0.0,0.0,92,0.00,,,0.07,0,Wunderground v.1.15,2013-10-20 00:33:00,
2013-10-19 20:38:00,45.5,43.0,29.91,SW,232,1.0,2.0,91,0.00,,,0.07,0,Wunderground v.1.15,2013-10-20 00:38:00,
2013-10-19 20:44:00,45.3,42.8,29.92,SW,232,1.0,1.0,91,0.00,,,0.07,0,Wunderground v.1.15,2013-10-20 00:44:00,
2013-10-19 20:50:00,45.2,42.7,29.92,SW,229,0.0,0.0,91,0.00,,,0.07,0,Wunderground v.1.15,2013-10-20 00:50:00,
2013-10-19 20:55:00,45.1,42.3,29.92,WSW,250,0.0,0.0,90,0.00,,,0.07,0,Wunderground v.1.15,2013-10-20 00:55:00,
2013-10-19 21:01:00,45.0,42.2,29.93,WSW,247,0.0,11.0,90,0.00,,,-99.99,0,WeatherLink 6.0.3,2013-10-20 01:01:00,
2013-10-19 21:07:00,45.0,42.2,29.93,WNW,286,0.0,1.0,90,0.00,,,0.07,0,Wunderground v.1.15,2013-10-20 01:07:00,
2013-10-19 21:12:00,45.0,42.2,29.93,SW,236,0.0,2.0,90,0.00,,,0.07,0,Wunderground v.1.15,2013-10-20 01:12:00,
2013-10-19 21:17:00,45.0,42.2,29.94,SW,227,0.0,2.0,90,0.00,,,0.07,0,Wunderground v.1.15,2013-10-20 01:17:00,
2013-10-19 21:22:00,45.0,42.0,29.94,SW,234,0.0,0.0,89,0.00,,,0.07,0,Wunderground v.1.15,2013-10-20 01:22:00,
2013-10-19 21:28:00,45.0,42.0,29.94,WNW,298,0.0,3.0,89,0.00,,,0.07,0,Wunderground v.1.15,2013-10-20 01:28:00,
2013-10-19 21:34:00,45.0,42.0,29.94,North,355,0.0,0.0,89,0.00,,,0.07,0,Wunderground v.1.15,2013-10-20 01:34:00,
2013-10-19 21:39:00,44.9,41.9,29.95,WNW,284,0.0,0.0,89,0.00,,,0.07,0,Wunderground v.1.15,2013-10-20 01:39:00,
2013-10-19 21:45:00,44.9,41.6,29.95,West,277,0.0,1.0,88,0.00,,,0.07,0,Wunderground v.1.15,2013-10-20 01:45:00,
2013-10-19 21:50:00,44.7,41.4,29.95,West,260,0.0,0.0,88,0.00,,,0.07,0,Wunderground v.1.15,2013-10-20 01:50:00,
2013-10-19 21:56:00,44.4,41.1,29.95,West,271,1.0,4.0,88,0.00,,,0.07,0,Wunderground v.1.15,2013-10-20 01:56:00,
2013-10-19 22:01:00,44.1,40.8,29.95,West,270,0.0,9.0,88,0.00,,,-99.99,0,WeatherLink 6.0.3,2013-10-20 02:01:00,
2013-10-19 22:08:00,43.7,40.4,29.95,WNW,285,0.0,0.0,88,0.00,,,0.07,0,Wunderground v.1.15,2013-10-20 02:08:00,
2013-10-19 22:14:00,43.4,40.1,29.95,WNW,285,0.0,0.0,88,0.00,,,0.07,0,Wunderground v.1.15,2013-10-20 02:14:00,
2013-10-19 22:19:00,43.1,40.1,29.95,WNW,285,0.0,0.0,89,0.00,,,0.07,0,Wunderground v.1.15,2013-10-20 02:19:00,
2013-10-19 22:25:00,42.8,39.8,29.95,WNW,285,0.0,0.0,89,0.00,,,0.07,0,Wunderground v.1.15,2013-10-20 02:25:00,
2013-10-19 22:31:00,42.6,39.6,29.96,WNW,292,0.0,1.0,89,0.00,,,-99.99,0,WeatherLink 6.0.3,2013-10-20 02:31:00,
2013-10-19 22:36:00,42.3,39.6,29.96,West,279,0.0,0.0,90,0.00,,,0.07,0,Wunderground v.1.15,2013-10-20 02:36:00,
2013-10-19 22:42:00,42.0,39.3,29.96,West,279,0.0,0.0,90,0.00,,,0.07,0,Wunderground v.1.15,2013-10-20 02:42:00,
2013-10-19 22:48:00,41.7,39.3,29.96,West,279,0.0,0.0,91,0.00,,,0.07,0,Wunderground v.1.15,2013-10-20 02:48:00,
2013-10-19 22:53:00,41.5,39.1,29.97,West,279,0.0,0.0,91,0.00,,,0.07,0,Wunderground v.1.15,2013-10-20 02:53:00,
2013-10-19 22:59:00,41.3,38.9,29.97,West,279,0.0,0.0,91,0.00,,,0.07,0,Wunderground v.1.15,2013-10-20 02:59:00,
2013-10-19 23:05:00,41.0,38.9,29.97,West,279,0.0,0.0,92,0.00,,,0.07,0,Wunderground v.1.15,2013-10-20 03:05:00,
2013-10-19 23:10:00,40.9,38.8,29.97,West,279,0.0,0.0,92,0.00,,,0.07,0,Wunderground v.1.15,2013-10-20 03:10:00,
2013-10-19 23:15:00,40.7,38.6,29.97,West,279,0.0,0.0,92,0.00,,,0.07,0,Wunderground v.1.15,2013-10-20 03:15:00,
2013-10-19 23:20:00,40.6,38.5,29.97,West,279,0.0,0.0,92,0.00,,,0.07,0,Wunderground v.1.15,2013-10-20 03:20:00,
2013-10-19 23:26:00,40.4,38.3,29.97,West,279,0.0,0.0,92,0.00,,,0.07,0,Wunderground v.1.15,2013-10-20 03:26:00,
2013-10-19 23:32:00,40.3,38.4,29.98,West,279,0.0,0.0,93,0.00,,,0.07,0,Wunderground v.1.15,2013-10-20 03:32:00,
2013-10-19 23:37:00,40.2,38.3,29.98,West,279,0.0,0.0,93,0.00,,,0.07,0,Wunderground v.1.15,2013-10-20 03:37:00,
2013-10-19 23:43:00,40.2,38.3,29.98,West,279,0.0,0.0,93,0.00,,,0.07,0,Wunderground v.1.15,2013-10-20 03:43:00,
2013-10-19 23:48:00,40.1,38.2,29.98,West,279,0.0,0.0,93,0.00,,,0.07,0,Wunderground v.1.15,2013-10-20 03:48:00,
2013-10-19 23:53:00,40.0,38.1,29.98,West,279,0.0,0.0,93,0.00,,,0.07,0,Wunderground v.1.15,2013-10-20 03:53:00,
2013-10-19 23:58:00,39.9,38.0,29.98,West,279,0.0,0.0,93,0.00,,,0.07,0,Wunderground v.1.15,2013-10-20 03:58:00,